createdAt,value
2022-08-24T00:00:50.482Z,100.00
2022-08-24T00:03:59.532Z,100.00
2022-08-24T00:07:21.502Z,100.00
2022-08-24T00:10:37.336Z,100.00
2022-08-24T00:13:46.657Z,100.00
2022-08-24T00:16:55.204Z,100.00
2022-08-24T00:20:11.177Z,100.00
2022-08-24T00:23:19.533Z,100.00
2022-08-24T00:26:29.396Z,100.00
2022-08-24T00:29:38.177Z,100.00
2022-08-24T00:32:48.901Z,100.00
2022-08-24T00:35:57.300Z,100.00
2022-08-24T00:39:07.981Z,100.00
2022-08-24T00:42:17.651Z,100.00
2022-08-24T00:45:26.251Z,100.00
2022-08-24T00:48:41.749Z,100.00
2022-08-24T00:51:59.087Z,100.00
2022-08-24T00:55:17.928Z,100.00
2022-08-24T00:58:35.976Z,100.00
2022-08-24T01:01:45.125Z,100.00
2022-08-24T01:04:58.028Z,100.00
2022-08-24T01:08:11.298Z,100.00
2022-08-24T01:11:27.491Z,100.00
2022-08-24T01:14:40.759Z,100.00
2022-08-24T01:18:06.933Z,100.00
2022-08-24T01:21:22.483Z,100.00
2022-08-24T01:24:32.085Z,100.00
2022-08-24T01:27:43.709Z,100.00
2022-08-24T01:30:52.223Z,100.00
2022-08-24T01:34:00.745Z,100.00
2022-08-24T01:37:12.400Z,100.00
2022-08-24T01:40:34.523Z,100.00
2022-08-24T01:43:42.730Z,100.00
2022-08-24T01:46:53.821Z,100.00
2022-08-24T01:50:03.464Z,100.00
2022-08-24T01:53:12.080Z,100.00
2022-08-24T01:56:21.637Z,100.00
2022-08-24T01:59:31.243Z,100.00
2022-08-24T02:02:39.709Z,100.00
2022-08-24T02:05:49.324Z,100.00
2022-08-24T02:08:57.541Z,100.00
2022-08-24T02:12:09.073Z,100.00
2022-08-24T02:15:24.225Z,100.00
2022-08-24T02:18:35.749Z,100.00
2022-08-24T02:21:44.021Z,100.00
2022-08-24T02:24:52.285Z,100.00
2022-08-24T02:28:02.964Z,100.00
2022-08-24T02:31:14.797Z,100.00
2022-08-24T02:34:25.732Z,100.00
2022-08-24T02:37:33.857Z,100.00
2022-08-24T02:40:44.296Z,100.00
2022-08-24T02:43:55.562Z,100.00
2022-08-24T02:47:03.768Z,100.00
2022-08-24T02:50:17.948Z,100.00
2022-08-24T02:53:26.530Z,100.00
2022-08-24T02:56:35.908Z,100.00
2022-08-24T02:59:45.516Z,100.00
2022-08-24T03:02:54.745Z,100.00
2022-08-24T03:06:03.990Z,100.00
2022-08-24T03:09:12.463Z,100.00
2022-08-24T03:12:21.207Z,100.00
2022-08-24T03:15:32.116Z,100.00
2022-08-24T03:18:40.460Z,100.00
2022-08-24T03:21:49.379Z,100.00
2022-08-24T03:24:57.916Z,100.00
2022-08-24T03:28:08.633Z,100.00
2022-08-24T03:31:21.059Z,100.00
2022-08-24T03:37:54.388Z,100.00
2022-08-24T03:41:02.766Z,100.00
2022-08-24T03:44:12.085Z,100.00
2022-08-24T03:47:23.032Z,100.00
2022-08-24T03:50:31.683Z,100.00
2022-08-24T03:53:42.983Z,100.00
2022-08-24T03:56:52.615Z,100.00
2022-08-24T04:00:00.991Z,100.00
2022-08-24T04:03:13.196Z,100.00
2022-08-24T04:06:23.601Z,100.00
2022-08-24T04:09:31.910Z,100.00
2022-08-24T04:12:40.540Z,100.00
2022-08-24T04:15:53.085Z,100.00
2022-08-24T04:19:02.778Z,100.00
2022-08-24T04:22:11.196Z,100.00
2022-08-24T04:25:24.225Z,100.00
2022-08-24T04:28:33.722Z,100.00
2022-08-24T04:31:44.444Z,100.00
2022-08-24T04:34:55.171Z,100.00
2022-08-24T04:38:03.339Z,100.00
2022-08-24T04:41:14.284Z,100.00
2022-08-24T04:44:26.242Z,100.00
2022-08-24T04:47:37.077Z,100.00
2022-08-24T04:50:46.992Z,100.00
2022-08-24T04:53:55.439Z,100.00
2022-08-24T04:57:07.531Z,100.00
2022-08-24T05:00:16.642Z,100.00
2022-08-24T05:03:26.009Z,100.00
2022-08-24T05:06:35.887Z,100.00
2022-08-24T05:09:44.510Z,100.00
2022-08-24T05:12:53.009Z,100.00
2022-08-24T05:16:01.369Z,100.00
2022-08-24T05:19:09.996Z,100.00
2022-08-24T05:22:20.878Z,100.00
2022-08-24T05:25:34.372Z,100.00
2022-08-24T05:28:43.543Z,100.00
2022-08-24T05:31:51.750Z,100.00
2022-08-24T05:35:04.765Z,100.00
2022-08-24T05:38:14.888Z,100.00
2022-08-24T05:41:24.371Z,100.00
2022-08-24T05:44:40.511Z,100.00
2022-08-24T05:47:49.165Z,100.00
2022-08-24T05:51:23.127Z,100.00
2022-08-24T05:54:41.632Z,100.00
2022-08-24T05:57:53.020Z,100.00
2022-08-24T06:01:09.187Z,100.00
2022-08-24T06:04:17.651Z,100.00
2022-08-24T06:07:26.962Z,100.00
2022-08-24T06:10:44.610Z,100.00
2022-08-24T06:13:56.259Z,100.00
2022-08-24T06:17:10.634Z,89.68
2022-08-24T06:20:19.124Z,76.27
2022-08-24T06:23:27.419Z,69.07
2022-08-24T06:27:00.337Z,66.79
2022-08-24T06:30:13.333Z,65.04
2022-08-24T06:33:48.050Z,61.73
2022-08-24T06:36:56.560Z,61.42
2022-08-24T06:40:10.290Z,56.96
2022-08-24T06:43:20.020Z,55.57
2022-08-24T06:46:32.937Z,58.96
2022-08-24T06:49:44.432Z,61.24
2022-08-24T06:52:52.727Z,61.14
2022-08-24T06:56:01.925Z,63.61
2022-08-24T06:59:15.638Z,58.76
2022-08-24T07:02:23.829Z,58.63
2022-08-24T07:05:34.995Z,64.17
2022-08-24T07:09:05.743Z,61.27
2022-08-24T07:12:14.446Z,59.84
2022-08-24T07:15:26.414Z,57.85
2022-08-24T07:18:50.229Z,55.86
2022-08-24T07:22:01.279Z,54.50
2022-08-24T07:25:11.146Z,53.84
2022-08-24T07:28:27.769Z,51.60
2022-08-24T07:31:43.801Z,53.89
2022-08-24T07:35:03.294Z,54.02
2022-08-24T07:38:14.083Z,53.97
2022-08-24T07:41:56.717Z,53.95
2022-08-24T07:44:54.505Z,54.46
2022-08-24T07:48:05.466Z,55.40
2022-08-24T07:51:24.770Z,55.74
2022-08-24T07:54:32.920Z,53.61
2022-08-24T07:57:45.147Z,51.79
2022-08-24T08:00:53.624Z,49.09
2022-08-24T08:04:07.208Z,50.82
2022-08-24T08:07:17.452Z,49.22
2022-08-24T08:10:31.083Z,49.05
2022-08-24T08:16:54.635Z,51.91
2022-08-24T08:20:07.000Z,50.52
2022-08-24T08:23:33.492Z,48.86
2022-08-24T08:26:54.682Z,48.84
2022-08-24T08:30:12.451Z,49.38
2022-08-24T08:33:20.977Z,49.54
2022-08-24T08:36:31.569Z,49.61
2022-08-24T08:39:41.766Z,48.89
2022-08-24T08:43:05.920Z,49.18
2022-08-24T08:46:43.985Z,49.60
2022-08-24T08:50:17.005Z,47.60
2022-08-24T08:54:13.007Z,48.23
2022-08-24T08:57:44.008Z,49.66
2022-08-24T09:01:06.450Z,49.83
2022-08-24T09:05:02.734Z,50.52
2022-08-24T09:08:28.546Z,51.63
2022-08-24T09:11:56.098Z,53.45
2022-08-24T09:15:32.046Z,52.74
2022-08-24T09:19:06.282Z,53.16
2022-08-24T09:22:17.897Z,52.87
2022-08-24T09:25:36.553Z,51.98
2022-08-24T09:29:05.397Z,53.43
2022-08-24T09:32:49.745Z,51.05
2022-08-24T09:36:12.477Z,53.46
2022-08-24T09:39:46.287Z,52.71
2022-08-24T09:43:32.831Z,52.52
2022-08-24T09:47:20.724Z,49.72
2022-08-24T09:51:08.039Z,51.35
2022-08-24T09:54:58.640Z,51.78
2022-08-24T09:58:24.455Z,50.21
2022-08-24T10:01:43.048Z,50.78
2022-08-24T10:05:10.251Z,51.31
2022-08-24T10:08:39.699Z,52.31
2022-08-24T10:12:04.975Z,52.20
2022-08-24T10:15:24.550Z,51.13
2022-08-24T10:18:52.293Z,52.09
2022-08-24T10:22:18.311Z,52.88
2022-08-24T10:25:38.455Z,51.84
2022-08-24T10:29:32.726Z,55.58
2022-08-24T10:32:57.178Z,52.81
2022-08-24T10:36:50.217Z,54.24
2022-08-24T10:40:40.703Z,54.97
2022-08-24T10:44:17.839Z,52.14
2022-08-24T10:47:30.991Z,51.63
2022-08-24T10:50:58.798Z,52.57
2022-08-24T10:54:12.465Z,51.86
2022-08-24T10:57:37.000Z,50.45
2022-08-24T11:00:46.012Z,51.88
2022-08-24T11:04:09.618Z,54.12
2022-08-24T11:07:22.518Z,52.58
2022-08-24T11:10:35.772Z,53.34
2022-08-24T11:13:58.958Z,52.92
2022-08-24T11:17:18.766Z,54.42
2022-08-24T11:20:34.956Z,54.66
2022-08-24T11:23:44.337Z,55.68
2022-08-24T11:26:58.701Z,52.81
2022-08-24T11:30:24.775Z,52.13
2022-08-24T11:33:36.807Z,51.85
2022-08-24T11:36:45.606Z,52.98
2022-08-24T11:39:53.845Z,52.29
2022-08-24T11:43:39.475Z,52.07
2022-08-24T11:47:01.534Z,53.49
2022-08-24T11:50:31.817Z,51.18
2022-08-24T11:53:53.073Z,53.51
2022-08-24T11:57:11.599Z,52.66
2022-08-24T12:00:24.896Z,49.48
2022-08-24T12:03:54.395Z,49.52
2022-08-24T12:07:22.437Z,49.39
2022-08-24T12:10:43.428Z,49.48
2022-08-24T12:14:04.805Z,49.96
2022-08-24T12:17:22.848Z,51.52
2022-08-24T12:20:39.170Z,52.09
2022-08-24T12:23:52.238Z,51.62
2022-08-24T12:27:08.099Z,50.70
2022-08-24T12:30:18.775Z,50.80
2022-08-24T12:33:37.600Z,52.52
2022-08-24T12:37:01.418Z,53.47
2022-08-24T12:40:27.653Z,55.86
2022-08-24T12:43:43.303Z,54.38
2022-08-24T12:46:55.015Z,56.56
2022-08-24T12:50:08.972Z,57.79
2022-08-24T12:53:57.843Z,55.45
2022-08-24T12:57:35.021Z,54.19
2022-08-24T13:00:48.071Z,54.11
2022-08-24T13:04:32.477Z,55.89
2022-08-24T13:07:45.354Z,54.14
2022-08-24T13:11:07.612Z,54.99
2022-08-24T13:14:23.380Z,54.46
2022-08-24T13:17:42.565Z,53.50
2022-08-24T13:20:57.332Z,55.66
2022-08-24T13:25:02.063Z,56.29
2022-08-24T13:28:37.438Z,57.84
2022-08-24T13:31:57.485Z,58.93
2022-08-24T13:35:55.176Z,58.14
2022-08-24T13:39:17.274Z,56.65
2022-08-24T13:43:07.976Z,57.43
2022-08-24T13:46:30.232Z,57.78
2022-08-24T13:50:01.903Z,57.76
2022-08-24T13:53:46.809Z,56.36
2022-08-24T13:57:28.700Z,58.09
2022-08-24T14:00:46.738Z,57.86
2022-08-24T14:04:43.511Z,59.73
2022-08-24T14:08:09.875Z,58.30
2022-08-24T14:11:38.364Z,58.33
2022-08-24T14:15:15.976Z,56.82
2022-08-24T14:18:35.503Z,56.89
2022-08-24T14:21:59.252Z,57.42
2022-08-24T14:25:24.174Z,57.37
2022-08-24T14:28:43.527Z,56.84
2022-08-24T14:32:39.225Z,56.65
2022-08-24T14:36:09.689Z,55.48
2022-08-24T14:39:37.384Z,55.76
2022-08-24T14:42:57.964Z,58.28
2022-08-24T14:46:19.968Z,59.26
2022-08-24T14:49:39.132Z,59.22
2022-08-24T14:53:01.266Z,59.86
2022-08-24T14:56:26.591Z,60.24
2022-08-24T14:59:58.489Z,59.55
2022-08-24T15:03:29.504Z,58.72
2022-08-24T15:06:48.346Z,57.67
2022-08-24T15:10:00.280Z,58.62
2022-08-24T15:13:27.140Z,59.26
2022-08-24T15:16:53.211Z,59.31
2022-08-24T15:20:10.472Z,58.41
2022-08-24T15:23:29.261Z,58.58
2022-08-24T15:26:56.120Z,58.50
2022-08-24T15:30:18.450Z,59.34
2022-08-24T15:33:28.867Z,58.87
2022-08-24T15:36:37.069Z,59.47
2022-08-24T15:43:20.350Z,61.83
2022-08-24T15:46:37.083Z,62.61
2022-08-24T15:49:52.316Z,63.19
2022-08-24T15:53:06.664Z,63.35
2022-08-24T15:56:35.631Z,62.68
2022-08-24T15:59:53.047Z,61.68
2022-08-24T16:03:22.154Z,59.49
2022-08-24T16:06:41.410Z,59.99
2022-08-24T16:10:01.972Z,60.41
2022-08-24T16:13:30.218Z,61.02
2022-08-24T16:16:42.585Z,61.86
2022-08-24T16:19:58.313Z,63.28
2022-08-24T16:23:11.545Z,64.76
2022-08-24T16:26:25.300Z,65.46
2022-08-24T16:29:55.833Z,65.39
2022-08-24T16:33:06.255Z,65.16
2022-08-24T16:36:20.391Z,65.88
2022-08-24T16:39:29.005Z,65.33
2022-08-24T16:42:38.929Z,64.94
2022-08-24T16:45:47.930Z,65.19
2022-08-24T16:48:56.423Z,66.45
2022-08-24T16:52:07.253Z,66.09
2022-08-24T16:55:15.791Z,65.69
2022-08-24T16:58:30.750Z,65.60
2022-08-24T17:01:38.939Z,65.84
2022-08-24T17:04:47.533Z,66.43
2022-08-24T17:08:00.291Z,66.50
2022-08-24T17:11:09.411Z,66.83
2022-08-24T17:14:19.650Z,67.19
2022-08-24T17:17:28.824Z,68.03
2022-08-24T17:20:37.595Z,68.54
2022-08-24T17:23:48.430Z,68.96
2022-08-24T17:26:57.693Z,69.29
2022-08-24T17:30:07.983Z,69.61
2022-08-24T17:33:18.616Z,70.45
2022-08-24T17:36:30.421Z,70.36
2022-08-24T17:39:42.743Z,70.98
2022-08-24T17:42:52.160Z,71.16
2022-08-24T17:46:01.408Z,71.88
2022-08-24T17:49:13.259Z,73.30
2022-08-24T17:52:22.746Z,73.57
2022-08-24T17:55:32.592Z,74.91
2022-08-24T17:58:54.784Z,75.75
2022-08-24T18:02:07.100Z,76.93
2022-08-24T18:05:15.493Z,78.69
2022-08-24T18:08:23.923Z,79.19
2022-08-24T18:11:34.141Z,81.14
2022-08-24T18:14:43.636Z,82.67
2022-08-24T18:17:53.722Z,82.99
2022-08-24T18:21:02.161Z,83.31
2022-08-24T18:24:10.439Z,81.94
2022-08-24T18:27:28.942Z,81.97
2022-08-24T18:30:40.634Z,83.76
2022-08-24T18:33:49.940Z,85.24
2022-08-24T18:36:58.238Z,86.26
2022-08-24T18:40:08.929Z,87.45
2022-08-24T18:43:21.436Z,87.54
2022-08-24T18:46:32.035Z,88.53
2022-08-24T18:49:40.669Z,89.07
2022-08-24T18:52:49.664Z,89.85
2022-08-24T18:56:00.605Z,90.33
2022-08-24T18:59:16.947Z,91.51
2022-08-24T19:02:33.107Z,91.43
2022-08-24T19:05:41.981Z,92.32
2022-08-24T19:08:54.259Z,93.23
2022-08-24T19:12:04.006Z,93.83
2022-08-24T19:15:32.063Z,95.15
2022-08-24T19:18:42.215Z,95.08
2022-08-24T19:21:51.171Z,95.84
2022-08-24T19:25:04.189Z,97.48
2022-08-24T19:28:13.040Z,97.95
2022-08-24T19:31:26.001Z,98.40
2022-08-24T19:34:35.816Z,99.73
2022-08-24T19:37:45.084Z,99.91
2022-08-24T19:40:54.428Z,99.94
2022-08-24T19:44:27.934Z,100.00
2022-08-24T19:47:38.284Z,100.00
2022-08-24T19:50:47.061Z,100.00
2022-08-24T19:53:55.391Z,100.00
2022-08-24T19:57:03.845Z,100.00
2022-08-24T20:00:28.659Z,100.00
2022-08-24T20:03:38.565Z,100.00
2022-08-24T20:06:47.270Z,100.00
2022-08-24T20:09:55.749Z,100.00
2022-08-24T20:13:04.298Z,100.00
2022-08-24T20:16:17.765Z,100.00
2022-08-24T20:19:28.552Z,100.00
2022-08-24T20:22:36.816Z,100.00
2022-08-24T20:25:46.266Z,100.00
2022-08-24T20:28:59.090Z,100.00
2022-08-24T20:32:07.646Z,100.00
2022-08-24T20:35:19.222Z,100.00
2022-08-24T20:38:31.958Z,100.00
2022-08-24T20:41:40.832Z,100.00
2022-08-24T20:44:49.557Z,100.00
2022-08-24T20:47:58.083Z,100.00
2022-08-24T20:51:08.950Z,100.00
2022-08-24T20:54:17.467Z,100.00
2022-08-24T20:57:26.471Z,100.00
2022-08-24T21:00:34.963Z,100.00
2022-08-24T21:03:44.556Z,100.00
2022-08-24T21:06:54.775Z,100.00
2022-08-24T21:10:03.414Z,100.00
2022-08-24T21:13:12.025Z,100.00
2022-08-24T21:16:20.536Z,100.00
2022-08-24T21:19:30.786Z,100.00
2022-08-24T21:22:47.358Z,100.00
2022-08-24T21:25:56.150Z,100.00
2022-08-24T21:29:08.283Z,100.00
2022-08-24T21:32:34.150Z,100.00
2022-08-24T21:35:43.714Z,100.00
2022-08-24T21:38:55.937Z,100.00
2022-08-24T21:42:04.687Z,100.00
2022-08-24T21:45:13.247Z,100.00
2022-08-24T21:48:21.936Z,100.00
2022-08-24T21:51:31.190Z,100.00
2022-08-24T21:54:41.031Z,100.00
2022-08-24T21:57:49.451Z,100.00
2022-08-24T22:00:58.864Z,100.00
2022-08-24T22:04:09.069Z,100.00
2022-08-24T22:07:17.400Z,100.00
2022-08-24T22:10:27.346Z,100.00
2022-08-24T22:13:38.309Z,100.00
2022-08-24T22:16:47.117Z,100.00
2022-08-24T22:19:55.472Z,100.00
2022-08-24T22:23:03.928Z,100.00
2022-08-24T22:26:14.565Z,100.00
2022-08-24T22:29:23.181Z,100.00
2022-08-24T22:32:31.511Z,100.00
2022-08-24T22:35:44.937Z,100.00
2022-08-24T22:38:56.190Z,100.00
2022-08-24T22:42:06.965Z,100.00
2022-08-24T22:45:15.672Z,100.00
2022-08-24T22:48:23.937Z,100.00
2022-08-24T22:51:36.277Z,100.00
2022-08-24T22:54:46.802Z,100.00
2022-08-24T22:57:56.375Z,100.00
2022-08-24T23:01:04.904Z,100.00
2022-08-24T23:04:18.213Z,100.00
2022-08-24T23:07:27.016Z,100.00
2022-08-24T23:10:35.405Z,100.00
2022-08-24T23:13:45.964Z,100.00
2022-08-24T23:16:54.840Z,100.00
2022-08-24T23:20:06.336Z,100.00
2022-08-24T23:23:14.978Z,100.00
2022-08-24T23:26:23.438Z,100.00
2022-08-24T23:29:34.245Z,100.00
2022-08-24T23:32:43.707Z,100.00
2022-08-24T23:35:52.160Z,100.00
2022-08-24T23:39:01.252Z,100.00
2022-08-24T23:42:09.807Z,100.00
2022-08-24T23:45:19.985Z,100.00
2022-08-24T23:48:38.202Z,100.00
2022-08-24T23:51:46.727Z,100.00
2022-08-24T23:54:55.050Z,100.00
2022-08-24T23:58:04.226Z,100.00
